createdAt,value
2022-12-25T00:02:26.651Z,1.88
2022-12-25T00:04:56.978Z,1.83
2022-12-25T00:07:27.538Z,2.72
2022-12-25T00:09:57.712Z,2.10
2022-12-25T00:12:27.922Z,2.47
2022-12-25T00:14:58.091Z,2.60
2022-12-25T00:17:28.459Z,2.65
2022-12-25T00:19:58.614Z,2.17
2022-12-25T00:22:28.961Z,2.50
2022-12-25T00:24:59.184Z,2.58
2022-12-25T00:27:29.387Z,2.40
2022-12-25T00:29:59.625Z,2.03
2022-12-25T00:32:29.936Z,2.55
2022-12-25T00:35:00.140Z,2.65
2022-12-25T00:37:30.600Z,2.45
2022-12-25T00:40:00.850Z,2.72
2022-12-25T00:42:31.073Z,2.50
2022-12-25T00:45:02.613Z,3.28
2022-12-25T00:47:32.985Z,2.80
2022-12-25T00:50:03.042Z,3.30
2022-12-25T00:52:33.973Z,3.92
2022-12-25T00:55:04.499Z,3.65
2022-12-25T00:57:35.812Z,4.22
2022-12-25T01:00:06.701Z,3.47
2022-12-25T01:02:37.130Z,4.82
2022-12-25T01:05:08.021Z,4.68
2022-12-25T01:07:38.205Z,4.72
2022-12-25T01:10:23.964Z,4.30
2022-12-25T01:12:56.829Z,4.25
2022-12-25T01:15:27.363Z,4.72
2022-12-25T01:17:57.567Z,5.25
2022-12-25T01:20:27.775Z,4.82
2022-12-25T01:22:57.939Z,4.75
2022-12-25T01:27:57.598Z,4.03
2022-12-25T01:30:27.757Z,3.35
2022-12-25T01:32:57.759Z,2.90
2022-12-25T01:35:28.004Z,2.97
2022-12-25T01:37:58.268Z,3.20
2022-12-25T01:40:28.451Z,2.33
2022-12-25T01:45:45.518Z,3.45
2022-12-25T01:48:20.922Z,7.03
2022-12-25T01:51:13.269Z,7.20
2022-12-25T01:53:43.572Z,15.13
2022-12-25T01:56:14.183Z,22.45
2022-12-25T01:58:44.670Z,22.48
2022-12-25T02:01:15.051Z,20.58
2022-12-25T02:03:45.702Z,20.17
2022-12-25T02:06:16.134Z,17.98
2022-12-25T02:08:46.788Z,17.52
2022-12-25T02:11:36.560Z,16.52
2022-12-25T02:14:06.797Z,14.55
2022-12-25T02:16:56.654Z,15.70
2022-12-25T02:20:03.024Z,14.95
2022-12-25T02:22:53.992Z,15.35
2022-12-25T02:25:53.312Z,15.70
2022-12-25T02:29:07.736Z,14.38
2022-12-25T02:31:51.503Z,14.02
2022-12-25T02:34:35.257Z,15.98
2022-12-25T02:37:34.119Z,13.82
2022-12-25T02:40:08.618Z,16.48
2022-12-25T02:43:01.237Z,15.65
2022-12-25T02:46:11.642Z,16.67
2022-12-25T02:49:19.106Z,15.23
2022-12-25T02:52:14.030Z,15.45
2022-12-25T02:58:00.737Z,10.52
2022-12-25T03:00:51.762Z,9.27
2022-12-25T03:03:43.062Z,9.93
2022-12-25T03:06:32.744Z,9.90
2022-12-25T03:09:24.500Z,10.30
2022-12-25T03:12:02.627Z,10.00
2022-12-25T03:14:51.237Z,9.45
2022-12-25T03:17:21.431Z,8.45
2022-12-25T03:20:10.017Z,7.97
2022-12-25T03:23:05.096Z,6.85
2022-12-25T03:25:53.846Z,6.03
2022-12-25T03:28:24.121Z,5.13
2022-12-25T03:31:14.641Z,5.53
2022-12-25T03:34:37.580Z,5.07
2022-12-25T03:37:40.231Z,4.80
2022-12-25T03:40:50.787Z,4.35
2022-12-25T03:43:56.203Z,4.35
2022-12-25T03:46:48.904Z,4.18
2022-12-25T03:49:46.276Z,5.45
2022-12-25T03:52:37.558Z,5.82
2022-12-25T03:55:29.965Z,7.20
2022-12-25T03:58:18.183Z,8.05
2022-12-25T04:01:06.612Z,6.18
2022-12-25T04:03:55.292Z,6.32
2022-12-25T04:06:43.636Z,8.93
2022-12-25T04:09:31.851Z,10.50
2022-12-25T04:12:20.159Z,10.57
2022-12-25T04:15:08.518Z,10.10
2022-12-25T04:17:57.003Z,11.30
2022-12-25T04:20:45.230Z,9.85
2022-12-25T04:23:33.463Z,10.48
2022-12-25T04:26:22.154Z,9.05
2022-12-25T04:31:58.456Z,8.65
2022-12-25T04:34:48.667Z,12.50
2022-12-25T04:37:18.872Z,11.13
2022-12-25T04:39:49.155Z,11.07
2022-12-25T04:42:19.597Z,11.13
2022-12-25T04:44:49.896Z,12.30
2022-12-25T04:47:20.051Z,12.15
2022-12-25T04:52:19.443Z,11.32
2022-12-25T04:54:49.676Z,10.70
2022-12-25T04:57:19.731Z,9.55
2022-12-25T04:59:49.708Z,10.18
2022-12-25T05:02:19.899Z,8.57
2022-12-25T05:04:50.598Z,8.38
2022-12-25T05:07:20.874Z,8.20
2022-12-25T05:09:51.830Z,9.45
2022-12-25T05:12:22.016Z,8.48
2022-12-25T05:17:21.630Z,8.93
2022-12-25T05:22:21.297Z,9.07
2022-12-25T05:24:51.661Z,7.78
2022-12-25T05:27:22.692Z,7.15
2022-12-25T05:29:52.869Z,7.93
2022-12-25T05:34:52.549Z,7.22
2022-12-25T05:37:22.775Z,7.70
2022-12-25T05:42:22.393Z,6.20
2022-12-25T05:44:52.660Z,6.32
2022-12-25T05:47:23.002Z,5.40
2022-12-25T05:49:53.252Z,5.43
2022-12-25T05:54:52.946Z,4.43
2022-12-25T05:59:52.506Z,4.00
2022-12-25T06:02:23.447Z,4.07
2022-12-25T06:04:53.762Z,4.38
2022-12-25T06:07:24.270Z,5.75
2022-12-25T06:09:54.564Z,4.05
2022-12-25T06:12:24.678Z,4.15
2022-12-25T06:14:54.895Z,4.18
2022-12-25T06:17:28.061Z,10.77
2022-12-25T06:19:58.434Z,11.52
2022-12-25T06:22:35.246Z,9.68
2022-12-25T06:25:05.684Z,9.00
2022-12-25T06:27:36.061Z,7.78
2022-12-25T06:30:07.639Z,8.05
2022-12-25T06:32:37.913Z,7.82
2022-12-25T06:35:08.538Z,7.15
2022-12-25T06:37:38.693Z,7.28
2022-12-25T06:42:38.423Z,7.80
2022-12-25T06:47:41.318Z,7.70
2022-12-25T06:50:11.521Z,7.70
2022-12-25T06:55:11.739Z,7.78
2022-12-25T06:57:41.925Z,7.35
2022-12-25T07:02:46.920Z,6.32
2022-12-25T07:05:17.329Z,6.95
2022-12-25T07:10:17.183Z,5.93
2022-12-25T07:12:47.380Z,5.35
2022-12-25T07:17:47.568Z,4.85
2022-12-25T07:20:17.734Z,5.28
2022-12-25T07:22:47.719Z,5.55
2022-12-25T07:25:18.506Z,4.78
2022-12-25T07:27:48.758Z,5.20
2022-12-25T07:32:50.231Z,5.50
2022-12-25T07:35:20.875Z,5.65
2022-12-25T07:40:20.532Z,5.78
2022-12-25T07:45:20.176Z,4.07
2022-12-25T07:50:20.633Z,5.15
2022-12-25T07:52:50.809Z,4.18
2022-12-25T07:55:20.770Z,4.35
2022-12-25T07:57:50.871Z,4.47
2022-12-25T08:00:21.430Z,3.97
2022-12-25T08:02:52.441Z,3.88
2022-12-25T08:05:22.822Z,3.85
2022-12-25T08:10:28.707Z,4.28
2022-12-25T08:12:58.941Z,4.18
2022-12-25T08:17:58.549Z,4.20
2022-12-25T08:20:28.976Z,4.50
2022-12-25T08:22:59.143Z,4.22
2022-12-25T08:25:29.431Z,3.60
2022-12-25T08:28:02.694Z,3.50
2022-12-25T08:30:33.090Z,2.83
2022-12-25T08:35:35.115Z,2.45
2022-12-25T08:38:05.324Z,2.72
2022-12-25T08:40:35.576Z,2.35
2022-12-25T08:43:05.703Z,2.42
2022-12-25T08:45:35.719Z,2.47
2022-12-25T08:48:07.104Z,2.85
2022-12-25T08:50:37.401Z,2.38
2022-12-25T08:53:07.633Z,2.20
2022-12-25T08:55:37.582Z,2.28
2022-12-25T09:00:37.296Z,2.13
2022-12-25T09:03:07.592Z,2.55
2022-12-25T09:05:38.751Z,2.53
2022-12-25T09:08:09.251Z,2.45
2022-12-25T09:10:40.017Z,2.05
2022-12-25T09:13:11.116Z,2.40
2022-12-25T09:15:41.996Z,2.53
2022-12-25T09:18:12.189Z,2.03
2022-12-25T09:20:43.859Z,2.35
2022-12-25T09:23:15.824Z,1.77
2022-12-25T09:25:46.067Z,2.33
2022-12-25T09:30:45.726Z,1.90
2022-12-25T09:35:45.004Z,2.05
2022-12-25T09:40:44.543Z,1.75
2022-12-25T09:43:20.854Z,1.58
2022-12-25T09:45:51.167Z,1.85
2022-12-25T09:48:21.562Z,2.10
2022-12-25T09:51:00.251Z,2.15
2022-12-25T09:53:39.374Z,1.88
2022-12-25T09:56:15.520Z,1.85
2022-12-25T09:58:46.570Z,1.70
2022-12-25T10:01:57.447Z,1.70
2022-12-25T10:04:45.032Z,1.90
2022-12-25T10:07:50.628Z,1.80
2022-12-25T10:10:53.640Z,1.63
2022-12-25T10:13:39.091Z,1.60
2022-12-25T10:16:36.788Z,1.65
2022-12-25T10:19:15.830Z,1.58
2022-12-25T10:21:46.357Z,1.48
2022-12-25T10:24:35.102Z,1.58
2022-12-25T10:29:40.002Z,1.38
2022-12-25T10:32:11.889Z,1.10
2022-12-25T10:34:44.772Z,1.30
2022-12-25T10:37:15.174Z,2.00
2022-12-25T10:39:47.067Z,1.70
2022-12-25T10:42:53.680Z,1.73
2022-12-25T10:45:24.013Z,1.33
2022-12-25T10:48:07.900Z,1.30
2022-12-25T10:50:44.667Z,1.38
2022-12-25T10:53:42.449Z,1.70
2022-12-25T10:56:20.518Z,0.60
2022-12-25T10:58:50.697Z,0.50
2022-12-25T11:01:20.927Z,0.45
2022-12-25T11:03:53.942Z,0.80
2022-12-25T11:06:30.223Z,0.50
2022-12-25T11:09:02.491Z,0.73
2022-12-25T11:11:33.123Z,0.32
2022-12-25T11:14:04.548Z,0.57
2022-12-25T11:16:41.384Z,0.35
2022-12-25T11:19:31.299Z,0.60
2022-12-25T11:22:05.040Z,0.15
2022-12-25T11:24:36.398Z,0.32
2022-12-25T11:27:08.443Z,0.20
2022-12-25T11:29:49.075Z,0.28
2022-12-25T11:32:25.395Z,0.40
2022-12-25T11:37:36.962Z,0.30
2022-12-25T11:40:08.665Z,0.30
2022-12-25T11:42:41.869Z,0.50
2022-12-25T11:45:20.235Z,0.40
2022-12-25T11:48:00.020Z,0.60
2022-12-25T11:50:32.171Z,0.47
2022-12-25T11:53:12.711Z,0.73
2022-12-25T11:55:55.963Z,0.70
2022-12-25T11:58:50.248Z,0.57
2022-12-25T12:01:44.063Z,0.52
2022-12-25T12:04:42.019Z,0.43
2022-12-25T12:07:33.680Z,0.40
2022-12-25T12:10:07.024Z,0.40
2022-12-25T12:12:58.088Z,0.40
2022-12-25T12:15:59.721Z,0.30
2022-12-25T12:18:30.179Z,0.40
2022-12-25T12:21:05.511Z,0.35
2022-12-25T12:23:58.445Z,0.28
2022-12-25T12:26:31.629Z,0.38
2022-12-25T12:29:03.991Z,0.40
2022-12-25T12:31:47.093Z,0.20
2022-12-25T12:34:28.014Z,0.45
2022-12-25T12:37:25.545Z,0.30
2022-12-25T12:39:57.321Z,0.20
2022-12-25T12:42:33.360Z,0.22
2022-12-25T12:45:21.838Z,0.35
2022-12-25T12:50:36.735Z,0.20
2022-12-25T12:53:26.099Z,0.32
2022-12-25T12:55:56.876Z,0.30
2022-12-25T12:58:37.823Z,0.40
2022-12-25T13:01:29.448Z,0.20
2022-12-25T13:04:18.122Z,0.32
2022-12-25T13:07:06.377Z,0.38
2022-12-25T13:09:36.488Z,0.38
2022-12-25T13:12:29.686Z,0.38
2022-12-25T13:15:01.783Z,0.45
2022-12-25T13:17:32.160Z,0.25
2022-12-25T13:20:03.531Z,0.43
2022-12-25T13:22:36.624Z,0.40
2022-12-25T13:25:10.940Z,0.45
2022-12-25T13:27:41.219Z,0.25
2022-12-25T13:30:20.641Z,0.30
2022-12-25T13:32:51.136Z,0.68
2022-12-25T13:35:24.262Z,0.60
2022-12-25T13:37:55.971Z,0.40
2022-12-25T13:40:29.073Z,0.32
2022-12-25T13:43:02.683Z,0.30
2022-12-25T13:45:35.230Z,0.32
2022-12-25T13:48:17.333Z,0.40
2022-12-25T13:50:57.563Z,0.88
2022-12-25T13:53:27.908Z,0.65
2022-12-25T13:55:59.925Z,1.02
2022-12-25T13:58:36.119Z,0.70
2022-12-25T14:01:06.895Z,0.68
2022-12-25T14:03:42.954Z,0.63
2022-12-25T14:06:27.887Z,0.63
2022-12-25T14:09:00.165Z,0.63
2022-12-25T14:11:32.710Z,0.43
2022-12-25T14:14:07.485Z,0.70
2022-12-25T14:16:38.059Z,0.75
2022-12-25T14:19:31.031Z,0.80
2022-12-25T14:22:24.255Z,0.70
2022-12-25T14:24:54.903Z,0.80
2022-12-25T14:27:31.706Z,0.82
2022-12-25T14:30:02.902Z,0.70
2022-12-25T14:32:43.240Z,1.02
2022-12-25T14:35:19.720Z,0.77
2022-12-25T14:38:01.653Z,0.95
2022-12-25T14:40:33.723Z,0.73
2022-12-25T14:43:07.043Z,1.25
2022-12-25T14:45:42.518Z,0.95
2022-12-25T14:48:30.488Z,0.80
2022-12-25T14:51:10.712Z,0.65
2022-12-25T14:53:50.975Z,1.13
2022-12-25T14:56:22.800Z,1.08
2022-12-25T14:58:56.301Z,0.80
2022-12-25T15:01:34.324Z,1.10
2022-12-25T15:04:13.388Z,1.10
2022-12-25T15:07:02.461Z,1.17
2022-12-25T15:09:33.311Z,0.93
2022-12-25T15:12:03.931Z,0.93
2022-12-25T15:14:37.585Z,0.90
2022-12-25T15:17:07.927Z,0.82
2022-12-25T15:19:39.694Z,0.90
2022-12-25T15:22:13.986Z,0.70
2022-12-25T15:24:44.183Z,1.35
2022-12-25T15:27:22.836Z,1.33
2022-12-25T15:30:10.068Z,1.17
2022-12-25T15:32:41.231Z,1.30
2022-12-25T15:35:17.892Z,1.20
2022-12-25T15:37:48.459Z,1.00
2022-12-25T15:40:18.863Z,1.13
2022-12-25T15:42:51.505Z,0.70
2022-12-25T15:45:30.168Z,1.00
2022-12-25T15:48:00.285Z,1.20
2022-12-25T15:50:31.407Z,0.85
2022-12-25T15:53:01.651Z,1.30
2022-12-25T15:55:31.857Z,1.00
2022-12-25T15:58:02.272Z,1.20
2022-12-25T16:00:33.020Z,1.10
2022-12-25T16:03:03.998Z,1.45
2022-12-25T16:05:34.300Z,1.60
2022-12-25T16:08:04.731Z,1.77
2022-12-25T16:10:38.710Z,1.02
2022-12-25T16:13:09.675Z,1.30
2022-12-25T16:15:39.847Z,1.15
2022-12-25T16:18:12.421Z,2.33
2022-12-25T16:20:42.693Z,2.80
2022-12-25T16:23:12.915Z,1.90
2022-12-25T16:25:43.067Z,1.65
2022-12-25T16:28:13.716Z,3.30
2022-12-25T16:30:44.346Z,2.75
2022-12-25T16:33:14.617Z,2.03
2022-12-25T16:35:45.357Z,2.67
2022-12-25T16:38:15.937Z,1.40
2022-12-25T16:40:46.794Z,1.10
2022-12-25T16:43:23.667Z,1.63
2022-12-25T16:45:54.794Z,1.30
2022-12-25T16:48:25.423Z,2.67
2022-12-25T16:50:55.576Z,1.50
2022-12-25T16:53:25.698Z,1.30
2022-12-25T16:56:07.455Z,1.85
2022-12-25T16:58:38.310Z,2.00
2022-12-25T17:01:20.207Z,1.60
2022-12-25T17:03:51.650Z,1.52
2022-12-25T17:06:29.419Z,1.67
2022-12-25T17:09:01.599Z,2.40
2022-12-25T17:11:32.309Z,2.28
2022-12-25T17:14:04.882Z,2.03
2022-12-25T17:16:38.084Z,1.67
2022-12-25T17:19:21.088Z,2.00
2022-12-25T17:21:51.646Z,2.40
2022-12-25T17:24:22.090Z,1.33
2022-12-25T17:26:52.322Z,1.90
2022-12-25T17:29:23.223Z,2.00
2022-12-25T17:31:53.623Z,1.58
2022-12-25T17:34:23.758Z,1.45
2022-12-25T17:36:55.203Z,1.73
2022-12-25T17:39:26.576Z,1.30
2022-12-25T17:41:56.807Z,1.38
2022-12-25T17:44:27.314Z,1.60
2022-12-25T17:46:57.737Z,1.35
2022-12-25T17:49:28.009Z,1.63
2022-12-25T17:51:58.295Z,1.33
2022-12-25T17:54:28.550Z,1.67
2022-12-25T17:56:58.761Z,2.70
2022-12-25T17:59:30.755Z,3.08
2022-12-25T18:02:00.992Z,1.65
2022-12-25T18:04:31.356Z,1.60
2022-12-25T18:07:01.617Z,2.13
2022-12-25T18:09:31.883Z,2.53
2022-12-25T18:12:02.656Z,1.85
2022-12-25T18:14:32.939Z,1.40
2022-12-25T18:17:03.109Z,1.90
2022-12-25T18:19:33.145Z,1.70
2022-12-25T18:22:03.420Z,1.48
2022-12-25T18:24:33.652Z,1.60
2022-12-25T18:27:03.858Z,1.20
2022-12-25T18:29:34.354Z,1.25
2022-12-25T18:32:04.658Z,0.93
2022-12-25T18:34:34.998Z,1.60
2022-12-25T18:37:06.137Z,1.58
2022-12-25T18:39:36.374Z,1.25
2022-12-25T18:42:25.479Z,1.67
2022-12-25T18:44:56.047Z,1.92
2022-12-25T18:47:26.154Z,1.25
2022-12-25T18:49:56.639Z,1.27
2022-12-25T18:52:47.715Z,1.25
2022-12-25T18:55:19.652Z,1.42
2022-12-25T18:57:50.710Z,1.60
2022-12-25T19:00:21.350Z,1.23
2022-12-25T19:02:52.234Z,1.38
2022-12-25T19:05:30.116Z,1.33
2022-12-25T19:08:01.898Z,1.48
2022-12-25T19:10:32.138Z,1.35
2022-12-25T19:13:02.403Z,1.00
2022-12-25T19:15:32.960Z,0.70
2022-12-25T19:18:03.825Z,0.65
2022-12-25T19:20:33.892Z,1.23
2022-12-25T19:23:04.036Z,1.02
2022-12-25T19:25:34.521Z,1.60
2022-12-25T19:28:04.750Z,1.10
2022-12-25T19:30:35.288Z,1.42
2022-12-25T19:33:05.691Z,1.42
2022-12-25T19:35:35.896Z,1.52
2022-12-25T19:38:06.034Z,0.80
2022-12-25T19:43:10.207Z,1.30
2022-12-25T19:45:40.478Z,1.40
2022-12-25T19:48:10.756Z,0.73
2022-12-25T19:50:41.039Z,1.02
2022-12-25T19:53:31.615Z,1.15
2022-12-25T19:56:04.537Z,1.25
2022-12-25T19:58:34.693Z,0.98
2022-12-25T20:01:08.152Z,1.52
2022-12-25T20:03:45.593Z,0.80
2022-12-25T20:06:26.023Z,0.80
2022-12-25T20:08:58.980Z,0.85
2022-12-25T20:11:31.274Z,0.93
2022-12-25T20:14:02.361Z,0.57
2022-12-25T20:16:32.684Z,1.38
2022-12-25T20:19:02.934Z,1.20
2022-12-25T20:21:33.216Z,1.55
2022-12-25T20:24:03.645Z,1.15
2022-12-25T20:26:34.216Z,1.13
2022-12-25T20:29:04.910Z,0.90
2022-12-25T20:31:36.911Z,1.30
2022-12-25T20:34:12.917Z,1.10
2022-12-25T20:36:46.573Z,1.67
2022-12-25T20:39:16.705Z,1.58
2022-12-25T20:41:48.702Z,2.00
2022-12-25T20:44:18.976Z,1.00
2022-12-25T20:46:49.280Z,1.20
2022-12-25T20:49:19.876Z,1.73
2022-12-25T20:51:50.045Z,1.30
2022-12-25T20:54:20.063Z,1.23
2022-12-25T20:56:51.042Z,2.60
2022-12-25T20:59:21.236Z,2.70
2022-12-25T21:01:52.813Z,1.38
2022-12-25T21:04:23.263Z,0.98
2022-12-25T21:06:53.852Z,1.75
2022-12-25T21:09:24.095Z,1.50
2022-12-25T21:11:54.315Z,1.65
2022-12-25T21:14:24.472Z,1.15
2022-12-25T21:16:54.816Z,1.65
2022-12-25T21:19:25.138Z,1.40
2022-12-25T21:21:55.319Z,1.00
2022-12-25T21:24:25.701Z,1.30
2022-12-25T21:26:55.944Z,1.75
2022-12-25T21:29:26.267Z,2.17
2022-12-25T21:32:15.290Z,1.23
2022-12-25T21:34:45.623Z,1.52
2022-12-25T21:39:44.910Z,1.20
2022-12-25T21:42:15.131Z,1.45
2022-12-25T21:44:46.593Z,1.38
2022-12-25T21:47:16.697Z,1.73
2022-12-25T21:50:04.899Z,1.73
2022-12-25T21:52:37.700Z,1.33
2022-12-25T21:55:08.167Z,1.23
2022-12-25T21:57:38.423Z,1.73
2022-12-25T22:00:09.274Z,1.52
2022-12-25T22:02:39.655Z,1.27
2022-12-25T22:05:10.059Z,1.52
2022-12-25T22:07:40.943Z,1.75
2022-12-25T22:10:11.288Z,1.27
2022-12-25T22:12:59.649Z,1.15
2022-12-25T22:15:48.489Z,1.88
2022-12-25T22:18:37.027Z,1.40
2022-12-25T22:21:07.229Z,1.80
2022-12-25T22:23:37.330Z,1.38
2022-12-25T22:28:38.064Z,1.52
2022-12-25T22:31:08.657Z,1.70
2022-12-25T22:33:39.313Z,1.50
2022-12-25T22:36:10.427Z,1.80
2022-12-25T22:38:43.953Z,1.17
2022-12-25T22:41:14.046Z,1.10
2022-12-25T22:46:34.008Z,1.77
2022-12-25T22:49:04.455Z,2.13
2022-12-25T22:51:34.641Z,1.48
2022-12-25T22:54:04.981Z,1.27
2022-12-25T22:56:35.165Z,1.45
2022-12-25T22:59:05.303Z,1.42
2022-12-25T23:01:35.661Z,1.13
2022-12-25T23:04:06.776Z,1.38
2022-12-25T23:06:37.166Z,1.45
2022-12-25T23:09:10.097Z,2.05
2022-12-25T23:11:40.363Z,2.05
2022-12-25T23:14:31.623Z,1.38
2022-12-25T23:17:02.131Z,1.83
2022-12-25T23:19:50.565Z,1.17
2022-12-25T23:22:39.415Z,1.35
2022-12-25T23:25:34.822Z,1.38
2022-12-25T23:28:05.023Z,1.58
2022-12-25T23:30:35.338Z,1.75
2022-12-25T23:33:05.668Z,2.25
2022-12-25T23:35:36.043Z,1.58
2022-12-25T23:38:06.285Z,1.95
2022-12-25T23:40:36.473Z,2.33
2022-12-25T23:43:09.844Z,2.65
2022-12-25T23:45:40.074Z,1.63
2022-12-25T23:48:11.504Z,1.65
2022-12-25T23:50:41.759Z,1.73
2022-12-25T23:53:12.683Z,1.70
2022-12-25T23:55:48.677Z,1.45
2022-12-25T23:58:21.856Z,1.83
